sensor_id;sensor_type;location;lat;lon;timestamp;temperature;humidity
72106;SHT30;59975;47.646;18.318;2022-10-15T00:01:16;12.05;81.29
72106;SHT30;59975;47.646;18.318;2022-10-15T00:03:43;12.05;80.88
72106;SHT30;59975;47.646;18.318;2022-10-15T00:06:12;12.05;80.78
72106;SHT30;59975;47.646;18.318;2022-10-15T00:08:38;11.99;81.12
72106;SHT30;59975;47.646;18.318;2022-10-15T00:11:17;12.01;81.10
72106;SHT30;59975;47.646;18.318;2022-10-15T00:13:44;12.04;81.28
72106;SHT30;59975;47.646;18.318;2022-10-15T00:16:21;12.04;81.24
72106;SHT30;59975;47.646;18.318;2022-10-15T00:18:47;12.02;81.30
72106;SHT30;59975;47.646;18.318;2022-10-15T00:21:27;11.98;81.15
72106;SHT30;59975;47.646;18.318;2022-10-15T00:23:53;11.95;81.26
72106;SHT30;59975;47.646;18.318;2022-10-15T00:26:24;11.97;81.01
72106;SHT30;59975;47.646;18.318;2022-10-15T00:28:51;11.97;80.89
72106;SHT30;59975;47.646;18.318;2022-10-15T00:31:18;11.99;80.33
72106;SHT30;59975;47.646;18.318;2022-10-15T00:33:47;11.99;80.13
72106;SHT30;59975;47.646;18.318;2022-10-15T00:36:15;12.02;79.72
72106;SHT30;59975;47.646;18.318;2022-10-15T00:38:41;12.04;79.53
72106;SHT30;59975;47.646;18.318;2022-10-15T00:41:11;12.05;79.31
72106;SHT30;59975;47.646;18.318;2022-10-15T00:43:46;11.99;79.38
72106;SHT30;59975;47.646;18.318;2022-10-15T00:46:39;12.01;79.35
72106;SHT30;59975;47.646;18.318;2022-10-15T00:49:18;12.01;79.35
72106;SHT30;59975;47.646;18.318;2022-10-15T00:52:02;11.98;79.34
72106;SHT30;59975;47.646;18.318;2022-10-15T00:54:31;11.91;79.47
72106;SHT30;59975;47.646;18.318;2022-10-15T00:56:57;11.91;79.48
72106;SHT30;59975;47.646;18.318;2022-10-15T00:59:24;11.92;79.46
72106;SHT30;59975;47.646;18.318;2022-10-15T01:02:00;11.85;79.40
72106;SHT30;59975;47.646;18.318;2022-10-15T01:04:27;11.82;79.38
72106;SHT30;59975;47.646;18.318;2022-10-15T01:06:53;11.78;79.60
72106;SHT30;59975;47.646;18.318;2022-10-15T01:09:19;11.81;79.49
72106;SHT30;59975;47.646;18.318;2022-10-15T01:11:49;11.81;79.37
72106;SHT30;59975;47.646;18.318;2022-10-15T01:14:38;11.81;79.15
72106;SHT30;59975;47.646;18.318;2022-10-15T01:28:24;11.64;79.51
72106;SHT30;59975;47.646;18.318;2022-10-15T01:31:00;11.71;79.35
72106;SHT30;59975;47.646;18.318;2022-10-15T01:36:54;11.67;79.41
72106;SHT30;59975;47.646;18.318;2022-10-15T01:39:29;11.61;79.44
72106;SHT30;59975;47.646;18.318;2022-10-15T01:42:02;11.66;79.49
72106;SHT30;59975;47.646;18.318;2022-10-15T01:44:49;11.67;79.36
72106;SHT30;59975;47.646;18.318;2022-10-15T01:47:26;11.67;79.39
72106;SHT30;59975;47.646;18.318;2022-10-15T01:49:55;11.64;79.54
72106;SHT30;59975;47.646;18.318;2022-10-15T01:52:28;11.63;79.76
72106;SHT30;59975;47.646;18.318;2022-10-15T01:54:57;11.64;79.76
72106;SHT30;59975;47.646;18.318;2022-10-15T01:57:24;11.66;80.04
72106;SHT30;59975;47.646;18.318;2022-10-15T01:59:51;11.61;80.13
72106;SHT30;59975;47.646;18.318;2022-10-15T02:02:18;11.54;80.03
72106;SHT30;59975;47.646;18.318;2022-10-15T02:04:45;11.54;80.08
72106;SHT30;59975;47.646;18.318;2022-10-15T02:07:15;11.56;79.94
72106;SHT30;59975;47.646;18.318;2022-10-15T02:09:59;11.59;80.02
72106;SHT30;59975;47.646;18.318;2022-10-15T02:17:53;11.60;80.28
72106;SHT30;59975;47.646;18.318;2022-10-15T02:20:27;11.60;80.27
72106;SHT30;59975;47.646;18.318;2022-10-15T02:23:11;11.50;80.73
72106;SHT30;59975;47.646;18.318;2022-10-15T02:25:42;11.46;80.69
72106;SHT30;59975;47.646;18.318;2022-10-15T02:28:09;11.49;80.81
72106;SHT30;59975;47.646;18.318;2022-10-15T02:30:38;11.49;80.63
72106;SHT30;59975;47.646;18.318;2022-10-15T02:33:05;11.51;80.52
72106;SHT30;59975;47.646;18.318;2022-10-15T02:35:31;11.59;80.13
72106;SHT30;59975;47.646;18.318;2022-10-15T02:38:06;11.51;80.17
72106;SHT30;59975;47.646;18.318;2022-10-15T02:40:33;11.47;80.32
72106;SHT30;59975;47.646;18.318;2022-10-15T02:43:04;11.47;80.51
72106;SHT30;59975;47.646;18.318;2022-10-15T02:45:29;11.46;80.59
72106;SHT30;59975;47.646;18.318;2022-10-15T02:47:55;11.46;80.68
72106;SHT30;59975;47.646;18.318;2022-10-15T02:50:20;11.46;80.96
72106;SHT30;59975;47.646;18.318;2022-10-15T02:52:46;11.43;81.13
72106;SHT30;59975;47.646;18.318;2022-10-15T02:55:11;11.41;81.03
72106;SHT30;59975;47.646;18.318;2022-10-15T02:57:37;11.36;80.95
72106;SHT30;59975;47.646;18.318;2022-10-15T03:00:21;11.30;80.99
72106;SHT30;59975;47.646;18.318;2022-10-15T03:02:46;11.29;81.04
72106;SHT30;59975;47.646;18.318;2022-10-15T03:05:12;11.23;80.96
72106;SHT30;59975;47.646;18.318;2022-10-15T03:07:37;11.24;81.15
72106;SHT30;59975;47.646;18.318;2022-10-15T03:10:04;11.26;80.92
72106;SHT30;59975;47.646;18.318;2022-10-15T03:12:32;11.23;80.83
72106;SHT30;59975;47.646;18.318;2022-10-15T03:14:58;11.23;80.94
72106;SHT30;59975;47.646;18.318;2022-10-15T03:17:23;11.26;80.77
72106;SHT30;59975;47.646;18.318;2022-10-15T03:19:49;11.29;80.75
72106;SHT30;59975;47.646;18.318;2022-10-15T03:22:15;11.23;80.98
72106;SHT30;59975;47.646;18.318;2022-10-15T03:24:58;11.13;81.15
72106;SHT30;59975;47.646;18.318;2022-10-15T03:27:24;11.16;81.08
72106;SHT30;59975;47.646;18.318;2022-10-15T03:29:50;11.19;80.97
72106;SHT30;59975;47.646;18.318;2022-10-15T03:32:16;11.13;80.97
72106;SHT30;59975;47.646;18.318;2022-10-15T03:34:41;11.18;80.75
72106;SHT30;59975;47.646;18.318;2022-10-15T03:37:22;11.19;80.67
72106;SHT30;59975;47.646;18.318;2022-10-15T03:39:47;11.29;80.37
72106;SHT30;59975;47.646;18.318;2022-10-15T03:42:13;11.24;80.50
72106;SHT30;59975;47.646;18.318;2022-10-15T03:44:39;11.30;80.64
72106;SHT30;59975;47.646;18.318;2022-10-15T03:47:04;11.29;80.76
72106;SHT30;59975;47.646;18.318;2022-10-15T03:49:48;11.26;80.74
72106;SHT30;59975;47.646;18.318;2022-10-15T03:52:13;11.24;80.99
72106;SHT30;59975;47.646;18.318;2022-10-15T03:54:39;11.23;81.38
72106;SHT30;59975;47.646;18.318;2022-10-15T03:57:05;11.27;81.31
72106;SHT30;59975;47.646;18.318;2022-10-15T03:59:30;11.27;81.36
72106;SHT30;59975;47.646;18.318;2022-10-15T04:01:57;11.23;81.47
72106;SHT30;59975;47.646;18.318;2022-10-15T04:04:23;11.24;81.26
72106;SHT30;59975;47.646;18.318;2022-10-15T04:06:48;11.23;81.23
72106;SHT30;59975;47.646;18.318;2022-10-15T04:09:13;11.20;80.93
72106;SHT30;59975;47.646;18.318;2022-10-15T04:11:39;11.22;80.79
72106;SHT30;59975;47.646;18.318;2022-10-15T04:14:05;11.23;80.78
72106;SHT30;59975;47.646;18.318;2022-10-15T04:16:31;11.29;80.48
72106;SHT30;59975;47.646;18.318;2022-10-15T04:18:56;11.27;80.58
72106;SHT30;59975;47.646;18.318;2022-10-15T04:21:23;11.26;80.66
72106;SHT30;59975;47.646;18.318;2022-10-15T04:23:52;11.24;80.85
72106;SHT30;59975;47.646;18.318;2022-10-15T04:26:17;11.29;81.04
72106;SHT30;59975;47.646;18.318;2022-10-15T04:28:43;11.22;81.22
72106;SHT30;59975;47.646;18.318;2022-10-15T04:31:08;11.27;81.44
72106;SHT30;59975;47.646;18.318;2022-10-15T04:33:34;11.31;81.28
72106;SHT30;59975;47.646;18.318;2022-10-15T04:36:18;11.30;81.37
72106;SHT30;59975;47.646;18.318;2022-10-15T04:38:43;11.31;81.28
72106;SHT30;59975;47.646;18.318;2022-10-15T04:41:10;11.34;81.08
72106;SHT30;59975;47.646;18.318;2022-10-15T04:43:36;11.33;81.09
72106;SHT30;59975;47.646;18.318;2022-10-15T04:46:04;11.33;81.13
72106;SHT30;59975;47.646;18.318;2022-10-15T04:48:39;11.30;81.24
72106;SHT30;59975;47.646;18.318;2022-10-15T04:51:13;11.31;81.07
72106;SHT30;59975;47.646;18.318;2022-10-15T04:53:39;11.27;81.30
72106;SHT30;59975;47.646;18.318;2022-10-15T04:56:06;11.31;81.23
72106;SHT30;59975;47.646;18.318;2022-10-15T04:58:34;11.30;81.22
72106;SHT30;59975;47.646;18.318;2022-10-15T05:01:05;11.30;81.31
72106;SHT30;59975;47.646;18.318;2022-10-15T05:03:32;11.31;81.10
72106;SHT30;59975;47.646;18.318;2022-10-15T05:06:07;11.30;81.04
72106;SHT30;59975;47.646;18.318;2022-10-15T05:08:42;11.29;81.19
72106;SHT30;59975;47.646;18.318;2022-10-15T05:11:20;11.26;81.20
72106;SHT30;59975;47.646;18.318;2022-10-15T05:13:46;11.34;80.98
72106;SHT30;59975;47.646;18.318;2022-10-15T05:16:19;11.37;80.85
72106;SHT30;59975;47.646;18.318;2022-10-15T05:18:56;11.36;80.59
72106;SHT30;59975;47.646;18.318;2022-10-15T05:21:22;11.37;80.51
72106;SHT30;59975;47.646;18.318;2022-10-15T05:23:47;11.36;80.52
72106;SHT30;59975;47.646;18.318;2022-10-15T05:26:17;11.40;80.50
72106;SHT30;59975;47.646;18.318;2022-10-15T05:28:42;11.40;80.50
72106;SHT30;59975;47.646;18.318;2022-10-15T05:31:10;11.41;80.42
72106;SHT30;59975;47.646;18.318;2022-10-15T05:33:36;11.41;80.43
72106;SHT30;59975;47.646;18.318;2022-10-15T05:36:11;11.53;80.03
72106;SHT30;59975;47.646;18.318;2022-10-15T05:38:38;11.54;80.02
72106;SHT30;59975;47.646;18.318;2022-10-15T05:41:03;11.57;79.93
72106;SHT30;59975;47.646;18.318;2022-10-15T05:43:29;11.54;80.20
72106;SHT30;59975;47.646;18.318;2022-10-15T05:45:55;11.51;80.32
72106;SHT30;59975;47.646;18.318;2022-10-15T05:48:20;11.53;80.23
72106;SHT30;59975;47.646;18.318;2022-10-15T05:50:51;11.59;80.05
72106;SHT30;59975;47.646;18.318;2022-10-15T05:53:16;11.69;79.52
72106;SHT30;59975;47.646;18.318;2022-10-15T05:55:42;11.73;79.29
72106;SHT30;59975;47.646;18.318;2022-10-15T05:58:07;11.78;79.20
72106;SHT30;59975;47.646;18.318;2022-10-15T06:00:34;11.82;79.07
72106;SHT30;59975;47.646;18.318;2022-10-15T06:03:01;11.80;79.23
72106;SHT30;59975;47.646;18.318;2022-10-15T06:05:26;11.82;79.26
72106;SHT30;59975;47.646;18.318;2022-10-15T06:07:52;11.92;78.89
72106;SHT30;59975;47.646;18.318;2022-10-15T06:10:19;11.88;79.14
72106;SHT30;59975;47.646;18.318;2022-10-15T06:12:51;11.90;79.06
72106;SHT30;59975;47.646;18.318;2022-10-15T06:15:17;11.88;78.98
72106;SHT30;59975;47.646;18.318;2022-10-15T06:17:43;11.87;79.16
72106;SHT30;59975;47.646;18.318;2022-10-15T06:20:11;11.94;78.75
72106;SHT30;59975;47.646;18.318;2022-10-15T06:22:36;12.12;78.19
72106;SHT30;59975;47.646;18.318;2022-10-15T06:25:05;12.18;77.90
72106;SHT30;59975;47.646;18.318;2022-10-15T06:27:31;12.25;77.77
72106;SHT30;59975;47.646;18.318;2022-10-15T06:29:57;12.35;77.16
72106;SHT30;59975;47.646;18.318;2022-10-15T06:32:23;12.50;76.75
72106;SHT30;59975;47.646;18.318;2022-10-15T06:34:48;12.65;76.00
72106;SHT30;59975;47.646;18.318;2022-10-15T06:40:37;12.87;75.01
72106;SHT30;59975;47.646;18.318;2022-10-15T06:43:05;13.03;74.40
72106;SHT30;59975;47.646;18.318;2022-10-15T06:45:33;13.16;73.92
72106;SHT30;59975;47.646;18.318;2022-10-15T06:48:01;13.30;73.64
72106;SHT30;59975;47.646;18.318;2022-10-15T06:50:27;13.44;73.12
72106;SHT30;59975;47.646;18.318;2022-10-15T06:52:53;13.61;72.26
72106;SHT30;59975;47.646;18.318;2022-10-15T06:55:18;13.72;71.80
72106;SHT30;59975;47.646;18.318;2022-10-15T06:57:44;13.85;71.79
72106;SHT30;59975;47.646;18.318;2022-10-15T07:00:10;14.01;71.02
72106;SHT30;59975;47.646;18.318;2022-10-15T07:02:37;14.19;70.61
72106;SHT30;59975;47.646;18.318;2022-10-15T07:05:02;14.40;69.70
72106;SHT30;59975;47.646;18.318;2022-10-15T07:07:28;14.59;69.37
72106;SHT30;59975;47.646;18.318;2022-10-15T07:09:53;14.76;69.06
72106;SHT30;59975;47.646;18.318;2022-10-15T07:12:19;14.88;68.40
72106;SHT30;59975;47.646;18.318;2022-10-15T07:14:47;14.97;67.74
72106;SHT30;59975;47.646;18.318;2022-10-15T07:17:13;14.98;67.89
72106;SHT30;59975;47.646;18.318;2022-10-15T07:19:39;14.93;68.07
72106;SHT30;59975;47.646;18.318;2022-10-15T07:22:04;14.93;67.87
72106;SHT30;59975;47.646;18.318;2022-10-15T07:24:29;14.97;67.83
72106;SHT30;59975;47.646;18.318;2022-10-15T07:26:55;14.93;67.58
72106;SHT30;59975;47.646;18.318;2022-10-15T07:29:20;14.88;68.00
72106;SHT30;59975;47.646;18.318;2022-10-15T07:31:46;14.83;68.21
72106;SHT30;59975;47.646;18.318;2022-10-15T07:34:11;14.87;68.77
72106;SHT30;59975;47.646;18.318;2022-10-15T07:36:38;14.86;68.68
72106;SHT30;59975;47.646;18.318;2022-10-15T07:39:04;14.96;68.53
72106;SHT30;59975;47.646;18.318;2022-10-15T07:41:30;14.97;68.61
72106;SHT30;59975;47.646;18.318;2022-10-15T07:43:55;15.01;68.42
72106;SHT30;59975;47.646;18.318;2022-10-15T07:46:21;15.08;68.51
72106;SHT30;59975;47.646;18.318;2022-10-15T07:48:48;15.06;68.50
72106;SHT30;59975;47.646;18.318;2022-10-15T07:51:13;15.01;68.59
72106;SHT30;59975;47.646;18.318;2022-10-15T07:53:39;15.06;68.66
72106;SHT30;59975;47.646;18.318;2022-10-15T07:56:06;15.15;68.39
72106;SHT30;59975;47.646;18.318;2022-10-15T07:58:36;15.27;68.12
72106;SHT30;59975;47.646;18.318;2022-10-15T08:01:05;15.35;68.18
72106;SHT30;59975;47.646;18.318;2022-10-15T08:03:31;15.48;67.64
72106;SHT30;59975;47.646;18.318;2022-10-15T08:06:01;15.63;67.27
72106;SHT30;59975;47.646;18.318;2022-10-15T08:08:28;15.79;67.43
72106;SHT30;59975;47.646;18.318;2022-10-15T08:10:53;15.88;66.96
72106;SHT30;59975;47.646;18.318;2022-10-15T08:13:19;16.00;66.55
72106;SHT30;59975;47.646;18.318;2022-10-15T08:15:44;16.17;66.15
72106;SHT30;59975;47.646;18.318;2022-10-15T08:18:10;16.34;65.88
72106;SHT30;59975;47.646;18.318;2022-10-15T08:20:36;16.57;65.05
72106;SHT30;59975;47.646;18.318;2022-10-15T08:23:04;16.80;64.78
72106;SHT30;59975;47.646;18.318;2022-10-15T08:25:29;17.01;62.77
72106;SHT30;59975;47.646;18.318;2022-10-15T08:27:57;17.24;62.39
72106;SHT30;59975;47.646;18.318;2022-10-15T08:30:23;17.46;60.88
72106;SHT30;59975;47.646;18.318;2022-10-15T08:32:48;17.58;60.38
72106;SHT30;59975;47.646;18.318;2022-10-15T08:35:20;17.82;59.80
72106;SHT30;59975;47.646;18.318;2022-10-15T08:37:46;18.03;59.44
72106;SHT30;59975;47.646;18.318;2022-10-15T08:40:12;18.33;58.51
72106;SHT30;59975;47.646;18.318;2022-10-15T08:42:44;18.43;57.23
72106;SHT30;59975;47.646;18.318;2022-10-15T08:45:14;18.41;57.56
72106;SHT30;59975;47.646;18.318;2022-10-15T08:50:47;18.57;56.29
72106;SHT30;59975;47.646;18.318;2022-10-15T08:53:18;18.67;56.04
72106;SHT30;59975;47.646;18.318;2022-10-15T08:55:49;18.61;55.71
72106;SHT30;59975;47.646;18.318;2022-10-15T08:58:19;18.68;55.71
72106;SHT30;59975;47.646;18.318;2022-10-15T09:00:52;18.62;55.78
72106;SHT30;59975;47.646;18.318;2022-10-15T09:03:38;18.34;56.94
72106;SHT30;59975;47.646;18.318;2022-10-15T09:06:29;18.30;57.08
72106;SHT30;59975;47.646;18.318;2022-10-15T09:09:18;18.37;57.08
72106;SHT30;59975;47.646;18.318;2022-10-15T09:14:51;18.71;57.01
72106;SHT30;59975;47.646;18.318;2022-10-15T09:17:49;18.92;56.49
72106;SHT30;59975;47.646;18.318;2022-10-15T09:20:20;19.06;55.24
72106;SHT30;59975;47.646;18.318;2022-10-15T09:22:49;19.20;54.85
72106;SHT30;59975;47.646;18.318;2022-10-15T09:25:19;19.42;54.98
72106;SHT30;59975;47.646;18.318;2022-10-15T09:27:49;19.43;55.08
72106;SHT30;59975;47.646;18.318;2022-10-15T09:30:41;19.43;54.92
72106;SHT30;59975;47.646;18.318;2022-10-15T09:33:36;19.35;55.13
72106;SHT30;59975;47.646;18.318;2022-10-15T09:36:10;19.30;54.81
72106;SHT30;59975;47.646;18.318;2022-10-15T09:39:00;19.29;53.24
72106;SHT30;59975;47.646;18.318;2022-10-15T09:43:58;19.27;51.92
72106;SHT30;59975;47.646;18.318;2022-10-15T09:46:25;19.45;51.47
72106;SHT30;59975;47.646;18.318;2022-10-15T09:49:05;19.59;51.51
72106;SHT30;59975;47.646;18.318;2022-10-15T09:51:43;19.83;51.80
72106;SHT30;59975;47.646;18.318;2022-10-15T09:57:07;19.88;52.39
72106;SHT30;59975;47.646;18.318;2022-10-15T10:00:07;19.71;51.51
72106;SHT30;59975;47.646;18.318;2022-10-15T10:02:33;19.77;51.62
72106;SHT30;59975;47.646;18.318;2022-10-15T10:07:45;19.73;50.69
72106;SHT30;59975;47.646;18.318;2022-10-15T10:10:32;19.63;51.58
72106;SHT30;59975;47.646;18.318;2022-10-15T10:13:00;19.53;51.73
72106;SHT30;59975;47.646;18.318;2022-10-15T10:15:39;19.55;51.93
72106;SHT30;59975;47.646;18.318;2022-10-15T10:18:17;19.56;52.28
72106;SHT30;59975;47.646;18.318;2022-10-15T10:23:51;19.69;52.83
72106;SHT30;59975;47.646;18.318;2022-10-15T10:26:17;19.56;52.51
72106;SHT30;59975;47.646;18.318;2022-10-15T10:28:52;19.69;52.22
72106;SHT30;59975;47.646;18.318;2022-10-15T10:31:30;19.76;52.03
72106;SHT30;59975;47.646;18.318;2022-10-15T10:33:59;19.76;52.04
72106;SHT30;59975;47.646;18.318;2022-10-15T10:36:29;19.88;52.48
72106;SHT30;59975;47.646;18.318;2022-10-15T10:42:00;19.86;51.81
72106;SHT30;59975;47.646;18.318;2022-10-15T10:44:32;19.81;51.97
72106;SHT30;59975;47.646;18.318;2022-10-15T10:49:38;19.81;51.25
72106;SHT30;59975;47.646;18.318;2022-10-15T10:52:34;19.97;52.07
72106;SHT30;59975;47.646;18.318;2022-10-15T10:55:21;19.98;51.95
72106;SHT30;59975;47.646;18.318;2022-10-15T10:57:50;20.06;51.94
72106;SHT30;59975;47.646;18.318;2022-10-15T11:00:25;19.97;50.57
72106;SHT30;59975;47.646;18.318;2022-10-15T11:02:56;19.94;51.18
72106;SHT30;59975;47.646;18.318;2022-10-15T11:05:26;19.93;50.86
72106;SHT30;59975;47.646;18.318;2022-10-15T11:11:01;19.97;50.62
72106;SHT30;59975;47.646;18.318;2022-10-15T11:25:24;20.25;52.03
72106;SHT30;59975;47.646;18.318;2022-10-15T11:28:04;20.39;52.85
72106;SHT30;59975;47.646;18.318;2022-10-15T11:33:57;20.39;52.59
72106;SHT30;59975;47.646;18.318;2022-10-15T11:42:54;20.32;51.99
72106;SHT30;59975;47.646;18.318;2022-10-15T11:45:43;20.34;50.69
72106;SHT30;59975;47.646;18.318;2022-10-15T11:54:20;20.18;50.20
72106;SHT30;59975;47.646;18.318;2022-10-15T11:56:52;20.07;51.24
72106;SHT30;59975;47.646;18.318;2022-10-15T11:59:39;19.97;50.69
72106;SHT30;59975;47.646;18.318;2022-10-15T12:02:16;19.80;50.39
72106;SHT30;59975;47.646;18.318;2022-10-15T12:04:55;19.80;50.52
72106;SHT30;59975;47.646;18.318;2022-10-15T12:07:26;19.80;50.29
72106;SHT30;59975;47.646;18.318;2022-10-15T12:10:03;19.84;50.87
72106;SHT30;59975;47.646;18.318;2022-10-15T12:17:53;20.07;50.45
72106;SHT30;59975;47.646;18.318;2022-10-15T12:20:26;20.20;50.66
72106;SHT30;59975;47.646;18.318;2022-10-15T12:22:59;20.34;50.57
72106;SHT30;59975;47.646;18.318;2022-10-15T12:28:15;20.37;49.81
72106;SHT30;59975;47.646;18.318;2022-10-15T12:31:01;20.31;50.19
72106;SHT30;59975;47.646;18.318;2022-10-15T12:33:44;20.20;50.20
72106;SHT30;59975;47.646;18.318;2022-10-15T12:39:06;20.14;50.91
72106;SHT30;59975;47.646;18.318;2022-10-15T12:41:45;20.06;51.57
72106;SHT30;59975;47.646;18.318;2022-10-15T12:44:23;20.06;51.81
72106;SHT30;59975;47.646;18.318;2022-10-15T12:46:49;19.98;51.86
72106;SHT30;59975;47.646;18.318;2022-10-15T12:55:21;19.71;51.88
72106;SHT30;59975;47.646;18.318;2022-10-15T13:02:54;19.77;52.08
72106;SHT30;59975;47.646;18.318;2022-10-15T13:05:28;19.76;52.16
72106;SHT30;59975;47.646;18.318;2022-10-15T13:07:56;19.74;52.32
72106;SHT30;59975;47.646;18.318;2022-10-15T13:10:33;19.76;52.69
72106;SHT30;59975;47.646;18.318;2022-10-15T13:13:06;19.70;53.24
72106;SHT30;59975;47.646;18.318;2022-10-15T13:15:36;19.70;53.33
72106;SHT30;59975;47.646;18.318;2022-10-15T13:18:07;19.71;53.07
72106;SHT30;59975;47.646;18.318;2022-10-15T13:20:43;19.71;52.25
72106;SHT30;59975;47.646;18.318;2022-10-15T13:23:32;19.71;52.54
72106;SHT30;59975;47.646;18.318;2022-10-15T13:26:24;19.66;52.94
72106;SHT30;59975;47.646;18.318;2022-10-15T13:28:56;19.67;53.01
72106;SHT30;59975;47.646;18.318;2022-10-15T13:31:34;19.65;53.71
72106;SHT30;59975;47.646;18.318;2022-10-15T13:34:32;19.59;53.83
72106;SHT30;59975;47.646;18.318;2022-10-15T13:37:02;19.55;53.76
72106;SHT30;59975;47.646;18.318;2022-10-15T13:42:23;19.53;54.04
72106;SHT30;59975;47.646;18.318;2022-10-15T13:45:18;19.49;54.41
72106;SHT30;59975;47.646;18.318;2022-10-15T13:47:49;19.52;54.37
72106;SHT30;59975;47.646;18.318;2022-10-15T13:50:23;19.52;54.39
72106;SHT30;59975;47.646;18.318;2022-10-15T13:55:35;19.55;54.41
72106;SHT30;59975;47.646;18.318;2022-10-15T14:00:39;19.59;54.30
72106;SHT30;59975;47.646;18.318;2022-10-15T14:03:17;19.63;54.49
72106;SHT30;59975;47.646;18.318;2022-10-15T14:05:47;19.62;54.70
72106;SHT30;59975;47.646;18.318;2022-10-15T14:08:18;19.65;54.70
72106;SHT30;59975;47.646;18.318;2022-10-15T14:10:44;19.69;54.35
72106;SHT30;59975;47.646;18.318;2022-10-15T14:13:10;19.65;54.78
72106;SHT30;59975;47.646;18.318;2022-10-15T14:18:42;19.55;54.96
72106;SHT30;59975;47.646;18.318;2022-10-15T14:21:10;19.52;54.69
72106;SHT30;59975;47.646;18.318;2022-10-15T14:23:37;19.43;54.96
72106;SHT30;59975;47.646;18.318;2022-10-15T14:26:03;19.39;55.05
72106;SHT30;59975;47.646;18.318;2022-10-15T14:28:30;19.32;55.06
72106;SHT30;59975;47.646;18.318;2022-10-15T14:30:57;19.19;55.38
72106;SHT30;59975;47.646;18.318;2022-10-15T14:36:21;18.99;55.87
72106;SHT30;59975;47.646;18.318;2022-10-15T14:38:46;18.88;56.69
72106;SHT30;59975;47.646;18.318;2022-10-15T14:41:30;18.81;56.82
72106;SHT30;59975;47.646;18.318;2022-10-15T14:44:04;18.67;56.68
72106;SHT30;59975;47.646;18.318;2022-10-15T14:46:38;18.61;56.78
72106;SHT30;59975;47.646;18.318;2022-10-15T14:49:18;18.55;57.32
72106;SHT30;59975;47.646;18.318;2022-10-15T14:51:50;18.50;57.66
72106;SHT30;59975;47.646;18.318;2022-10-15T14:54:20;18.43;57.54
72106;SHT30;59975;47.646;18.318;2022-10-15T14:56:50;18.38;57.63
72106;SHT30;59975;47.646;18.318;2022-10-15T14:59:19;18.33;57.62
72106;SHT30;59975;47.646;18.318;2022-10-15T15:01:57;18.30;57.83
72106;SHT30;59975;47.646;18.318;2022-10-15T15:04:38;18.27;58.08
72106;SHT30;59975;47.646;18.318;2022-10-15T15:07:13;18.20;58.82
72106;SHT30;59975;47.646;18.318;2022-10-15T15:09:39;18.16;58.60
72106;SHT30;59975;47.646;18.318;2022-10-15T15:12:11;18.10;59.07
72106;SHT30;59975;47.646;18.318;2022-10-15T15:14:38;18.06;59.20
72106;SHT30;59975;47.646;18.318;2022-10-15T15:17:03;18.00;59.75
72106;SHT30;59975;47.646;18.318;2022-10-15T15:19:29;18.00;60.84
72106;SHT30;59975;47.646;18.318;2022-10-15T15:21:55;17.90;61.77
72106;SHT30;59975;47.646;18.318;2022-10-15T15:24:20;17.89;61.32
72106;SHT30;59975;47.646;18.318;2022-10-15T15:26:46;17.80;61.24
72106;SHT30;59975;47.646;18.318;2022-10-15T15:29:11;17.72;60.91
72106;SHT30;59975;47.646;18.318;2022-10-15T15:31:39;17.63;61.05
72106;SHT30;59975;47.646;18.318;2022-10-15T15:34:05;17.62;61.19
72106;SHT30;59975;47.646;18.318;2022-10-15T15:36:31;17.56;61.24
72106;SHT30;59975;47.646;18.318;2022-10-15T15:38:56;17.49;61.32
72106;SHT30;59975;47.646;18.318;2022-10-15T15:41:24;17.46;61.49
72106;SHT30;59975;47.646;18.318;2022-10-15T15:43:51;17.45;61.63
72106;SHT30;59975;47.646;18.318;2022-10-15T15:46:17;17.40;61.59
72106;SHT30;59975;47.646;18.318;2022-10-15T15:48:43;17.34;61.91
72106;SHT30;59975;47.646;18.318;2022-10-15T15:51:21;17.32;61.63
72106;SHT30;59975;47.646;18.318;2022-10-15T15:53:48;17.34;61.73
72106;SHT30;59975;47.646;18.318;2022-10-15T15:56:14;17.34;61.64
72106;SHT30;59975;47.646;18.318;2022-10-15T15:58:39;17.32;61.59
72106;SHT30;59975;47.646;18.318;2022-10-15T16:01:05;17.26;62.12
72106;SHT30;59975;47.646;18.318;2022-10-15T16:03:33;17.24;61.55
72106;SHT30;59975;47.646;18.318;2022-10-15T16:05:59;17.24;61.60
72106;SHT30;59975;47.646;18.318;2022-10-15T16:08:24;17.19;61.56
72106;SHT30;59975;47.646;18.318;2022-10-15T16:10:50;17.16;61.39
72106;SHT30;59975;47.646;18.318;2022-10-15T16:13:16;17.16;61.52
72106;SHT30;59975;47.646;18.318;2022-10-15T16:15:42;17.16;61.40
72106;SHT30;59975;47.646;18.318;2022-10-15T16:18:07;17.14;61.31
72106;SHT30;59975;47.646;18.318;2022-10-15T16:20:33;17.12;61.29
72106;SHT30;59975;47.646;18.318;2022-10-15T16:23:03;17.16;61.09
72106;SHT30;59975;47.646;18.318;2022-10-15T16:25:38;17.11;61.21
72106;SHT30;59975;47.646;18.318;2022-10-15T16:28:03;17.11;61.38
72106;SHT30;59975;47.646;18.318;2022-10-15T16:30:30;17.07;61.43
72106;SHT30;59975;47.646;18.318;2022-10-15T16:32:55;17.07;61.47
72106;SHT30;59975;47.646;18.318;2022-10-15T16:35:21;17.05;61.47
72106;SHT30;59975;47.646;18.318;2022-10-15T16:37:46;17.04;61.49
72106;SHT30;59975;47.646;18.318;2022-10-15T16:40:12;17.01;61.46
72106;SHT30;59975;47.646;18.318;2022-10-15T16:42:39;17.00;61.63
72106;SHT30;59975;47.646;18.318;2022-10-15T16:45:05;17.01;61.74
72106;SHT30;59975;47.646;18.318;2022-10-15T16:47:31;16.98;61.83
72106;SHT30;59975;47.646;18.318;2022-10-15T16:49:57;16.98;61.96
72106;SHT30;59975;47.646;18.318;2022-10-15T16:52:23;16.96;62.35
72106;SHT30;59975;47.646;18.318;2022-10-15T16:54:48;16.92;62.93
72106;SHT30;59975;47.646;18.318;2022-10-15T16:57:14;16.92;62.98
72106;SHT30;59975;47.646;18.318;2022-10-15T16:59:39;16.94;62.95
72106;SHT30;59975;47.646;18.318;2022-10-15T17:02:08;16.88;63.21
72106;SHT30;59975;47.646;18.318;2022-10-15T17:04:34;16.87;63.39
72106;SHT30;59975;47.646;18.318;2022-10-15T17:06:59;16.80;63.60
72106;SHT30;59975;47.646;18.318;2022-10-15T17:09:25;16.80;63.70
72106;SHT30;59975;47.646;18.318;2022-10-15T17:11:50;16.78;63.73
72106;SHT30;59975;47.646;18.318;2022-10-15T17:14:16;16.73;63.96
72106;SHT30;59975;47.646;18.318;2022-10-15T17:16:44;16.74;64.08
72106;SHT30;59975;47.646;18.318;2022-10-15T17:19:12;16.73;64.20
72106;SHT30;59975;47.646;18.318;2022-10-15T17:21:38;16.70;64.04
72106;SHT30;59975;47.646;18.318;2022-10-15T17:24:08;16.70;64.07
72106;SHT30;59975;47.646;18.318;2022-10-15T17:26:36;16.67;63.46